createdAt,value
2018-06-10T00:00:02.846Z,23.32
2018-06-10T00:02:33.228Z,23.32
2018-06-10T00:05:00.447Z,24.23
2018-06-10T00:07:27.672Z,24.18
2018-06-10T00:09:54.997Z,23.65
2018-06-10T00:12:22.308Z,21.42
2018-06-10T00:14:50.396Z,24.57
2018-06-10T00:17:17.787Z,24.37
2018-06-10T00:19:44.999Z,23.73
2018-06-10T00:22:12.324Z,22.63
2018-06-10T00:24:39.636Z,24.85
2018-06-10T00:27:07.009Z,22.77
2018-06-10T00:29:34.366Z,22.82
2018-06-10T00:32:01.626Z,21.73
2018-06-10T00:34:28.871Z,22.60
2018-06-10T00:36:56.152Z,22.70
2018-06-10T00:39:23.480Z,22.85
2018-06-10T00:41:50.748Z,24.12
2018-06-10T00:44:18.116Z,23.42
2018-06-10T00:46:45.375Z,23.50
2018-06-10T00:49:12.681Z,20.97
2018-06-10T00:51:40.036Z,21.93
2018-06-10T00:54:07.292Z,20.23
2018-06-10T00:56:46.328Z,20.90
2018-06-10T00:59:13.671Z,21.10
2018-06-10T01:01:40.990Z,23.07
2018-06-10T01:04:08.353Z,23.55
2018-06-10T01:06:35.621Z,23.50
2018-06-10T01:09:03.461Z,22.02
2018-06-10T01:11:30.722Z,21.10
2018-06-10T01:13:58.039Z,23.22
2018-06-10T01:16:25.392Z,24.05
2018-06-10T01:18:52.688Z,22.77
2018-06-10T01:21:19.953Z,21.10
2018-06-10T01:23:47.198Z,21.23
2018-06-10T01:26:19.992Z,20.77
2018-06-10T01:28:47.261Z,21.13
2018-06-10T01:31:14.556Z,20.68
2018-06-10T01:33:41.876Z,21.40
2018-06-10T01:36:09.220Z,20.20
2018-06-10T01:38:36.479Z,21.30
2018-06-10T01:41:03.851Z,20.68
2018-06-10T01:43:31.178Z,22.02
2018-06-10T01:45:58.425Z,23.00
2018-06-10T01:48:25.717Z,26.10
2018-06-10T01:50:52.999Z,24.50
2018-06-10T01:53:20.273Z,22.32
2018-06-10T01:55:47.553Z,22.27
2018-06-10T01:58:14.883Z,22.62
2018-06-10T02:00:42.270Z,22.15
2018-06-10T02:03:09.530Z,23.40
2018-06-10T02:05:36.849Z,25.08
2018-06-10T02:08:04.183Z,25.40
2018-06-10T02:10:31.487Z,25.27
2018-06-10T02:12:58.806Z,25.65
2018-06-10T02:15:26.145Z,26.15
2018-06-10T02:17:53.405Z,26.62
2018-06-10T02:20:20.637Z,24.32
2018-06-10T02:22:47.938Z,23.62
2018-06-10T02:25:15.394Z,23.20
2018-06-10T02:27:42.711Z,24.20
2018-06-10T02:30:10.027Z,23.45
2018-06-10T02:32:37.270Z,25.65
2018-06-10T02:35:04.563Z,23.47
2018-06-10T02:37:31.907Z,23.27
2018-06-10T02:39:59.184Z,24.60
2018-06-10T02:42:26.517Z,23.93
2018-06-10T02:44:53.839Z,23.40
2018-06-10T02:47:21.139Z,23.10
2018-06-10T02:49:48.523Z,22.25
2018-06-10T02:52:15.836Z,22.00
2018-06-10T02:54:43.085Z,21.85
2018-06-10T02:57:10.289Z,23.27
2018-06-10T02:59:37.562Z,25.97
2018-06-10T03:02:04.874Z,26.45
2018-06-10T03:04:32.181Z,26.00
2018-06-10T03:06:59.532Z,25.20
2018-06-10T03:09:26.824Z,23.62
2018-06-10T03:11:54.100Z,24.55
2018-06-10T03:14:21.323Z,25.00
2018-06-10T03:16:48.555Z,26.23
2018-06-10T03:19:15.844Z,25.32
2018-06-10T03:21:43.285Z,23.62
2018-06-10T03:24:10.512Z,25.65
2018-06-10T03:26:37.895Z,26.85
2018-06-10T03:29:05.197Z,26.20
2018-06-10T03:31:32.616Z,27.15
2018-06-10T03:33:59.909Z,25.57
2018-06-10T03:36:27.194Z,23.60
2018-06-10T03:38:54.515Z,25.37
2018-06-10T03:41:21.829Z,27.42
2018-06-10T03:43:49.121Z,26.43
2018-06-10T03:46:16.354Z,26.77
2018-06-10T03:48:43.621Z,23.90
2018-06-10T03:51:10.869Z,23.52
2018-06-10T03:53:38.122Z,24.72
2018-06-10T03:56:05.451Z,23.90
2018-06-10T03:58:32.707Z,23.77
2018-06-10T04:01:00.014Z,26.37
2018-06-10T04:03:27.283Z,24.20
2018-06-10T04:05:54.603Z,24.77
2018-06-10T04:08:21.831Z,24.98
2018-06-10T04:10:49.135Z,23.93
2018-06-10T04:13:16.378Z,23.22
2018-06-10T04:15:43.700Z,22.15
2018-06-10T04:18:10.962Z,22.52
2018-06-10T04:20:38.265Z,22.32
2018-06-10T04:23:05.459Z,23.05
2018-06-10T04:25:32.810Z,22.87
2018-06-10T04:28:00.016Z,22.90
2018-06-10T04:30:27.358Z,22.65
2018-06-10T04:32:54.583Z,23.00
2018-06-10T04:35:21.916Z,24.43
2018-06-10T04:37:49.197Z,26.55
2018-06-10T04:40:16.477Z,24.57
2018-06-10T04:42:43.730Z,25.80
2018-06-10T04:45:11.010Z,24.45
2018-06-10T04:47:38.279Z,23.50
2018-06-10T04:50:05.570Z,24.82
2018-06-10T04:52:32.839Z,27.10
2018-06-10T04:55:00.116Z,25.57
2018-06-10T04:57:27.397Z,23.80
2018-06-10T04:59:54.646Z,23.65
2018-06-10T05:02:21.915Z,22.45
2018-06-10T05:04:49.162Z,23.50
2018-06-10T05:07:16.470Z,23.05
2018-06-10T05:09:43.701Z,25.53
2018-06-10T05:12:11.033Z,24.00
2018-06-10T05:14:38.334Z,22.90
2018-06-10T05:17:05.667Z,22.55
2018-06-10T05:19:32.982Z,20.70
2018-06-10T05:22:00.251Z,21.02
2018-06-10T05:24:27.492Z,23.87
2018-06-10T05:26:54.821Z,23.15
2018-06-10T05:29:22.859Z,24.00
2018-06-10T05:31:50.102Z,23.38
2018-06-10T05:34:17.280Z,22.90
2018-06-10T05:36:44.559Z,24.20
2018-06-10T05:39:43.464Z,24.80
2018-06-10T05:42:10.776Z,24.45
2018-06-10T05:44:38.070Z,24.35
2018-06-10T05:47:05.334Z,23.80
2018-06-10T05:49:32.538Z,23.73
2018-06-10T05:51:59.830Z,23.07
2018-06-10T05:54:27.129Z,23.65
2018-06-10T05:56:54.392Z,23.73
2018-06-10T05:59:21.659Z,24.07
2018-06-10T06:01:48.972Z,23.38
2018-06-10T06:04:16.390Z,23.10
2018-06-10T06:06:43.743Z,23.65
2018-06-10T06:09:11.077Z,24.55
2018-06-10T06:11:38.386Z,23.20
2018-06-10T06:14:05.668Z,24.05
2018-06-10T06:16:32.996Z,23.42
2018-06-10T06:19:00.302Z,23.47
2018-06-10T06:21:27.568Z,22.67
2018-06-10T06:23:54.934Z,23.10
2018-06-10T06:26:22.319Z,21.20
2018-06-10T06:28:49.604Z,20.40
2018-06-10T06:31:16.866Z,20.17
2018-06-10T06:33:44.275Z,19.80
2018-06-10T06:36:11.588Z,20.62
2018-06-10T06:38:38.856Z,20.62
2018-06-10T06:41:06.230Z,19.98
2018-06-10T06:43:33.593Z,18.62
2018-06-10T06:46:00.866Z,21.42
2018-06-10T06:48:28.127Z,20.27
2018-06-10T06:50:55.407Z,19.10
2018-06-10T06:53:22.687Z,19.70
2018-06-10T06:55:50.015Z,19.40
2018-06-10T06:58:17.266Z,20.17
2018-06-10T07:00:44.570Z,14.35
2018-06-10T07:03:11.817Z,15.43
2018-06-10T07:05:39.193Z,15.30
2018-06-10T07:08:06.495Z,16.05
2018-06-10T07:10:33.805Z,16.77
2018-06-10T07:13:01.118Z,15.32
2018-06-10T07:15:28.400Z,15.48
2018-06-10T07:17:55.648Z,12.47
2018-06-10T07:20:22.949Z,11.93
2018-06-10T07:22:50.262Z,12.17
2018-06-10T07:25:17.582Z,12.37
2018-06-10T07:27:44.786Z,11.70
2018-06-10T07:30:12.080Z,11.60
2018-06-10T07:32:39.357Z,12.40
2018-06-10T07:35:06.671Z,12.50
2018-06-10T07:37:33.913Z,14.53
2018-06-10T07:40:01.214Z,15.37
2018-06-10T07:42:28.635Z,14.05
2018-06-10T07:44:55.910Z,16.37
2018-06-10T07:47:23.302Z,15.70
2018-06-10T07:49:50.629Z,15.43
2018-06-10T07:52:17.965Z,15.58
2018-06-10T07:54:45.335Z,15.90
2018-06-10T07:57:12.758Z,16.13
2018-06-10T07:59:40.148Z,16.00
2018-06-10T08:02:07.569Z,14.83
2018-06-10T08:04:34.937Z,15.08
2018-06-10T08:07:02.168Z,15.05
2018-06-10T08:09:29.434Z,15.10
2018-06-10T08:11:56.702Z,14.40
2018-06-10T08:14:24.017Z,14.10
2018-06-10T08:16:51.319Z,14.35
2018-06-10T08:19:18.683Z,13.35
2018-06-10T08:21:46.069Z,13.10
2018-06-10T08:24:13.833Z,13.32
2018-06-10T08:26:41.388Z,12.33
2018-06-10T08:29:08.781Z,12.88
2018-06-10T08:31:36.206Z,13.15
2018-06-10T08:34:03.467Z,12.23
2018-06-10T08:36:30.809Z,11.90
2018-06-10T08:38:58.178Z,11.68
2018-06-10T08:41:25.556Z,11.28
2018-06-10T08:43:53.011Z,11.63
2018-06-10T08:46:20.274Z,11.88
2018-06-10T08:48:47.528Z,11.25
2018-06-10T08:51:14.823Z,11.80
2018-06-10T08:53:42.211Z,11.40
2018-06-10T08:56:09.509Z,11.30
2018-06-10T08:58:36.761Z,11.78
2018-06-10T09:01:04.061Z,11.93
2018-06-10T09:03:31.415Z,10.68
2018-06-10T09:05:58.753Z,11.70
2018-06-10T09:08:26.092Z,11.85
2018-06-10T09:10:53.415Z,11.30
2018-06-10T09:13:20.729Z,11.12
2018-06-10T09:15:48.055Z,10.35
2018-06-10T09:18:15.483Z,11.08
2018-06-10T09:20:42.787Z,9.50
2018-06-10T09:23:10.121Z,9.90
2018-06-10T09:25:37.443Z,10.65
2018-06-10T09:28:04.879Z,10.15
2018-06-10T09:30:32.161Z,9.00
2018-06-10T09:32:59.464Z,9.90
2018-06-10T09:35:26.881Z,9.70
2018-06-10T09:37:54.197Z,9.58
2018-06-10T09:40:21.576Z,9.90
2018-06-10T09:42:48.837Z,9.10
2018-06-10T09:45:16.207Z,9.35
2018-06-10T09:47:43.692Z,8.25
2018-06-10T09:50:11.192Z,8.55
2018-06-10T09:52:38.510Z,8.90
2018-06-10T09:55:05.933Z,8.80
2018-06-10T09:57:33.202Z,9.18
2018-06-10T10:00:00.561Z,9.03
2018-06-10T10:02:27.833Z,7.85
2018-06-10T10:04:55.185Z,8.55
2018-06-10T10:07:22.618Z,8.30
2018-06-10T10:09:50.587Z,8.15
2018-06-10T10:12:17.962Z,7.78
2018-06-10T10:14:45.562Z,8.33
2018-06-10T10:17:13.651Z,7.85
2018-06-10T10:19:41.080Z,7.80
2018-06-10T10:22:08.394Z,7.92
2018-06-10T10:24:35.772Z,7.90
2018-06-10T10:27:03.175Z,8.10
2018-06-10T10:29:30.514Z,8.08
2018-06-10T10:31:57.933Z,7.87
2018-06-10T10:34:25.314Z,6.90
2018-06-10T10:36:52.876Z,6.75
2018-06-10T10:39:20.344Z,6.13
2018-06-10T10:41:47.701Z,6.60
2018-06-10T10:44:15.017Z,6.20
2018-06-10T10:46:42.242Z,5.60
2018-06-10T10:49:09.618Z,6.40
2018-06-10T10:51:37.138Z,5.70
2018-06-10T10:54:04.783Z,6.20
2018-06-10T10:56:32.185Z,6.37
2018-06-10T10:58:59.413Z,6.53
2018-06-10T11:01:26.739Z,6.25
2018-06-10T11:03:54.073Z,6.35
2018-06-10T11:06:21.417Z,6.50
2018-06-10T11:08:48.733Z,7.22
2018-06-10T11:11:16.055Z,7.50
2018-06-10T11:13:43.751Z,6.80
2018-06-10T11:16:10.997Z,6.42
2018-06-10T11:18:38.335Z,7.28
2018-06-10T11:21:05.684Z,7.28
2018-06-10T11:23:33.029Z,6.40
2018-06-10T11:26:00.383Z,6.70
2018-06-10T11:28:27.813Z,6.90
2018-06-10T11:30:55.117Z,6.95
2018-06-10T11:33:22.589Z,6.33
2018-06-10T11:35:49.941Z,6.55
2018-06-10T11:38:17.285Z,6.37
2018-06-10T11:40:44.695Z,6.47
2018-06-10T11:43:12.031Z,6.17
2018-06-10T11:45:39.437Z,6.80
2018-06-10T11:48:06.777Z,6.80
2018-06-10T11:50:34.232Z,6.65
2018-06-10T11:53:01.580Z,6.60
2018-06-10T11:55:28.914Z,6.90
2018-06-10T11:57:56.200Z,6.08
2018-06-10T12:00:23.573Z,7.05
2018-06-10T12:02:50.794Z,6.08
2018-06-10T12:05:18.401Z,6.08
2018-06-10T12:07:45.720Z,6.55
2018-06-10T12:10:13.019Z,6.43
2018-06-10T12:12:40.393Z,6.62
2018-06-10T12:17:40.879Z,7.00
2018-06-10T12:20:08.156Z,6.30
2018-06-10T12:22:35.486Z,6.80
2018-06-10T12:25:02.822Z,6.42
2018-06-10T12:27:30.197Z,6.17
2018-06-10T12:29:57.545Z,6.45
2018-06-10T12:32:24.978Z,6.53
2018-06-10T12:34:52.240Z,6.50
2018-06-10T12:37:19.532Z,6.30
2018-06-10T12:39:46.910Z,6.35
2018-06-10T12:42:14.252Z,5.90
2018-06-10T12:44:41.562Z,6.30
2018-06-10T12:47:08.871Z,6.90
2018-06-10T12:49:36.557Z,6.60
2018-06-10T12:52:04.209Z,6.87
2018-06-10T12:54:31.511Z,6.30
2018-06-10T12:56:58.799Z,7.05
2018-06-10T12:59:26.235Z,6.80
2018-06-10T13:01:53.529Z,6.92
2018-06-10T13:04:20.894Z,6.47
2018-06-10T13:06:48.292Z,6.70
2018-06-10T13:09:15.570Z,7.00
2018-06-10T13:11:42.948Z,6.15
2018-06-10T13:14:10.225Z,6.60
2018-06-10T13:16:37.527Z,6.00
2018-06-10T13:19:05.250Z,6.08
2018-06-10T13:21:32.621Z,6.40
2018-06-10T13:24:00.099Z,7.60
2018-06-10T13:26:27.361Z,6.90
2018-06-10T13:29:03.792Z,7.08
2018-06-10T13:31:31.175Z,7.40
2018-06-10T13:33:58.636Z,6.95
2018-06-10T13:36:26.082Z,7.20
2018-06-10T13:38:53.430Z,6.80
2018-06-10T13:41:20.807Z,6.55
2018-06-10T13:43:48.172Z,6.80
2018-06-10T13:46:15.549Z,7.15
2018-06-10T13:48:42.857Z,6.55
2018-06-10T13:51:10.134Z,6.80
2018-06-10T13:53:37.444Z,6.30
2018-06-10T13:56:04.812Z,6.55
2018-06-10T13:58:32.102Z,6.60
2018-06-10T14:00:59.408Z,6.92
2018-06-10T14:03:26.750Z,6.50
2018-06-10T14:05:54.012Z,6.70
2018-06-10T14:08:21.285Z,5.90
2018-06-10T14:10:48.796Z,6.58
2018-06-10T14:13:16.129Z,6.92
2018-06-10T14:15:43.421Z,6.20
2018-06-10T14:18:10.770Z,6.80
2018-06-10T14:20:38.073Z,8.03
2018-06-10T14:23:05.363Z,8.73
2018-06-10T14:25:32.690Z,10.20
2018-06-10T14:28:00.381Z,10.45
2018-06-10T14:30:27.698Z,12.03
2018-06-10T14:32:54.966Z,13.28
2018-06-10T14:35:22.279Z,13.35
2018-06-10T14:37:49.731Z,11.75
2018-06-10T14:40:17.120Z,12.63
2018-06-10T14:42:44.398Z,12.18
2018-06-10T14:45:11.716Z,10.97
2018-06-10T14:47:39.071Z,10.90
2018-06-10T14:50:06.484Z,11.80
2018-06-10T14:52:33.748Z,11.68
2018-06-10T14:55:01.122Z,11.20
2018-06-10T14:57:28.372Z,11.25
2018-06-10T14:59:55.676Z,12.25
2018-06-10T15:02:22.973Z,11.20
2018-06-10T15:04:50.267Z,11.17
2018-06-10T15:07:17.562Z,11.03
2018-06-10T15:09:44.832Z,11.93
2018-06-10T15:12:12.178Z,11.60
2018-06-10T15:14:39.504Z,10.58
2018-06-10T15:17:06.826Z,10.45
2018-06-10T15:19:34.088Z,11.20
2018-06-10T15:22:01.394Z,10.72
2018-06-10T15:24:28.681Z,10.60
2018-06-10T15:26:55.935Z,11.05
2018-06-10T15:29:23.275Z,10.18
2018-06-10T15:31:50.780Z,9.10
2018-06-10T15:34:18.034Z,9.23
2018-06-10T15:36:45.308Z,8.73
2018-06-10T15:39:12.635Z,8.50
2018-06-10T15:41:40.037Z,9.45
2018-06-10T15:44:07.413Z,8.20
2018-06-10T15:46:34.730Z,7.53
2018-06-10T15:49:02.024Z,7.40
2018-06-10T15:51:29.373Z,7.40
2018-06-10T15:53:56.656Z,7.90
2018-06-10T15:56:24.192Z,5.97
2018-06-10T15:58:51.629Z,4.80
2018-06-10T16:01:18.943Z,4.60
2018-06-10T16:03:46.301Z,4.70
2018-06-10T16:06:13.634Z,4.40
2018-06-10T16:08:40.917Z,4.30
2018-06-10T16:11:08.237Z,4.80
2018-06-10T16:13:35.651Z,4.60
2018-06-10T16:16:03.259Z,4.25
2018-06-10T16:18:30.627Z,4.50
2018-06-10T16:20:57.904Z,4.60
2018-06-10T16:23:25.395Z,4.50
2018-06-10T16:25:52.700Z,4.65
2018-06-10T16:28:20.037Z,4.10
2018-06-10T16:30:47.340Z,4.50
2018-06-10T16:33:14.645Z,4.80
2018-06-10T16:35:42.087Z,4.50
2018-06-10T16:38:09.492Z,4.73
2018-06-10T16:40:36.852Z,4.92
2018-06-10T16:43:04.351Z,4.80
2018-06-10T16:45:31.700Z,4.87
2018-06-10T16:47:59.021Z,5.00
2018-06-10T16:50:26.421Z,4.83
2018-06-10T16:52:53.788Z,5.30
2018-06-10T16:55:21.134Z,5.12
2018-06-10T16:57:48.448Z,5.28
2018-06-10T17:00:15.841Z,4.90
2018-06-10T17:02:43.427Z,4.65
2018-06-10T17:05:10.915Z,4.93
2018-06-10T17:07:38.475Z,4.95
2018-06-10T17:10:05.981Z,4.20
2018-06-10T17:12:33.302Z,4.20
2018-06-10T17:15:03.546Z,4.50
2018-06-10T17:17:30.992Z,4.50
2018-06-10T17:19:58.647Z,4.37
2018-06-10T17:22:25.988Z,4.70
2018-06-10T17:24:53.364Z,4.97
2018-06-10T17:27:20.778Z,4.80
2018-06-10T17:29:48.072Z,4.50
2018-06-10T17:32:15.485Z,4.37
2018-06-10T17:34:42.978Z,4.70
2018-06-10T17:37:10.222Z,4.33
2018-06-10T17:39:38.253Z,4.30
2018-06-10T17:42:15.292Z,4.50
2018-06-10T17:44:43.266Z,5.00
2018-06-10T17:47:10.639Z,4.60
2018-06-10T17:49:38.660Z,4.75
2018-06-10T17:52:06.057Z,4.50
2018-06-10T17:54:33.360Z,4.40
2018-06-10T17:57:05.783Z,5.47
2018-06-10T17:59:33.292Z,5.40
2018-06-10T18:02:00.705Z,5.80
2018-06-10T18:04:28.020Z,5.00
2018-06-10T18:06:55.640Z,5.10
2018-06-10T18:09:22.988Z,4.97
2018-06-10T18:11:50.579Z,5.60
2018-06-10T18:14:18.040Z,5.15
2018-06-10T18:16:45.403Z,5.47
2018-06-10T18:19:12.677Z,5.22
2018-06-10T18:21:39.998Z,53.27
2018-06-10T18:24:07.311Z,23.67
2018-06-10T18:26:34.795Z,9.98
2018-06-10T18:29:02.053Z,6.28
2018-06-10T18:31:29.382Z,5.78
2018-06-10T18:33:56.759Z,5.73
2018-06-10T18:36:24.105Z,5.90
2018-06-10T18:38:51.399Z,5.37
2018-06-10T18:41:18.712Z,5.40
2018-06-10T18:43:46.028Z,4.83
2018-06-10T18:46:13.349Z,5.28
2018-06-10T18:48:40.767Z,6.10
2018-06-10T18:51:08.004Z,5.40
2018-06-10T18:53:35.350Z,5.60
2018-06-10T18:56:02.667Z,6.25
2018-06-10T18:58:30.017Z,6.40
2018-06-10T19:00:57.365Z,6.50
2018-06-10T19:03:24.857Z,6.63
2018-06-10T19:05:52.230Z,7.80
2018-06-10T19:08:19.573Z,7.62
2018-06-10T19:10:46.841Z,7.00
2018-06-10T19:13:14.130Z,7.50
2018-06-10T19:15:41.824Z,7.60
2018-06-10T19:18:09.039Z,8.35
2018-06-10T19:20:36.404Z,7.10
2018-06-10T19:23:03.752Z,7.30
2018-06-10T19:25:31.109Z,7.58
2018-06-10T19:27:58.537Z,7.90
2018-06-10T19:30:25.843Z,8.10
2018-06-10T19:32:53.236Z,7.65
2018-06-10T19:35:20.622Z,8.60
2018-06-10T19:37:49.112Z,9.00
2018-06-10T19:40:16.393Z,11.37
2018-06-10T19:42:43.697Z,8.15
2018-06-10T19:45:10.990Z,7.97
2018-06-10T19:47:50.747Z,8.50
2018-06-10T19:50:18.033Z,8.45
2018-06-10T19:52:45.331Z,8.08
2018-06-10T19:55:12.652Z,8.60
2018-06-10T19:57:53.477Z,8.63
2018-06-10T20:00:21.742Z,8.50
2018-06-10T20:02:49.144Z,8.70
2018-06-10T20:05:22.431Z,8.00
2018-06-10T20:07:49.783Z,7.95
2018-06-10T20:10:17.209Z,8.10
2018-06-10T20:12:44.521Z,7.90
2018-06-10T20:15:11.835Z,8.70
2018-06-10T20:17:39.189Z,8.78
2018-06-10T20:20:06.890Z,8.55
2018-06-10T20:22:35.109Z,8.80
2018-06-10T20:25:15.976Z,8.70
2018-06-10T20:27:44.083Z,8.75
2018-06-10T20:30:11.865Z,9.03
2018-06-10T20:32:39.299Z,8.48
2018-06-10T20:35:06.806Z,8.28
2018-06-10T20:37:34.247Z,8.45
2018-06-10T20:40:01.797Z,7.70
2018-06-10T20:42:29.355Z,8.00
2018-06-10T20:44:56.743Z,8.08
2018-06-10T20:47:24.164Z,9.18
2018-06-10T20:49:51.623Z,8.98
2018-06-10T20:52:19.210Z,8.93
2018-06-10T20:54:47.154Z,8.25
2018-06-10T20:57:15.336Z,8.60
2018-06-10T20:59:43.229Z,8.48
2018-06-10T21:02:12.531Z,9.23
2018-06-10T21:04:40.190Z,9.35
2018-06-10T21:07:08.333Z,10.55
2018-06-10T21:09:36.935Z,9.80
2018-06-10T21:12:10.204Z,10.10
2018-06-10T21:14:43.342Z,9.80
2018-06-10T21:17:10.787Z,10.10
2018-06-10T21:19:38.273Z,9.00
2018-06-10T21:22:05.728Z,9.70
2018-06-10T21:24:32.990Z,10.50
2018-06-10T21:27:00.362Z,9.90
2018-06-10T21:29:27.725Z,9.98
2018-06-10T21:31:55.047Z,9.35
2018-06-10T21:34:34.319Z,8.90
2018-06-10T21:37:02.452Z,9.20
2018-06-10T21:39:29.817Z,8.35
2018-06-10T21:41:57.740Z,8.40
2018-06-10T21:44:25.083Z,9.15
2018-06-10T21:46:53.653Z,9.18
2018-06-10T21:49:21.032Z,9.33
2018-06-10T21:51:48.358Z,9.55
2018-06-10T21:54:15.729Z,10.00
2018-06-10T21:56:43.063Z,9.45
2018-06-10T21:59:21.678Z,8.88
2018-06-10T22:01:49.146Z,10.32
2018-06-10T22:04:20.262Z,10.38
2018-06-10T22:06:47.619Z,10.70
2018-06-10T22:09:14.960Z,10.63
2018-06-10T22:11:42.651Z,9.95
2018-06-10T22:14:10.081Z,10.72
2018-06-10T22:16:37.640Z,10.35
2018-06-10T22:19:05.395Z,9.70
2018-06-10T22:21:49.672Z,10.10
2018-06-10T22:24:17.767Z,10.85
2018-06-10T22:26:45.079Z,10.80
2018-06-10T22:29:12.381Z,10.85
2018-06-10T22:31:39.706Z,10.23
2018-06-10T22:34:07.058Z,10.70
2018-06-10T22:36:34.400Z,10.13
2018-06-10T22:39:01.703Z,10.48
2018-06-10T22:41:28.959Z,10.38
2018-06-10T22:43:56.339Z,10.13
2018-06-10T22:46:23.595Z,10.40
2018-06-10T22:48:50.886Z,10.90
2018-06-10T22:51:18.329Z,10.70
2018-06-10T22:54:22.779Z,11.60
2018-06-10T22:56:50.118Z,10.98
2018-06-10T22:59:17.391Z,9.80
2018-06-10T23:01:44.709Z,10.90
2018-06-10T23:04:11.993Z,11.88
2018-06-10T23:06:39.305Z,11.40
2018-06-10T23:09:07.158Z,11.50
2018-06-10T23:11:34.436Z,11.00
2018-06-10T23:14:01.817Z,11.43
2018-06-10T23:16:29.114Z,10.85
2018-06-10T23:18:56.535Z,10.85
2018-06-10T23:21:23.821Z,11.80
2018-06-10T23:23:51.894Z,10.90
2018-06-10T23:26:19.162Z,10.98
2018-06-10T23:28:46.517Z,11.13
2018-06-10T23:31:13.793Z,11.90
2018-06-10T23:33:41.123Z,11.77
2018-06-10T23:36:08.470Z,11.57
2018-06-10T23:38:35.812Z,12.05
2018-06-10T23:41:03.177Z,13.20
2018-06-10T23:43:30.416Z,11.55
2018-06-10T23:45:57.762Z,11.70
2018-06-10T23:48:25.162Z,12.25
2018-06-10T23:50:52.405Z,13.50
2018-06-10T23:53:19.688Z,12.65
2018-06-10T23:55:46.944Z,11.90
2018-06-10T23:58:14.167Z,12.50
